createdAt,value
2022-12-09T00:01:09.715Z,17.67
2022-12-09T00:03:39.813Z,17.03
2022-12-09T00:06:09.344Z,16.50
2022-12-09T00:08:37.562Z,16.87
2022-12-09T00:11:06.664Z,17.33
2022-12-09T00:13:34.749Z,16.03
2022-12-09T00:16:06.817Z,15.83
2022-12-09T00:18:35.338Z,17.23
2022-12-09T00:21:14.889Z,16.97
2022-12-09T00:23:43.024Z,16.40
2022-12-09T00:26:11.209Z,16.23
2022-12-09T00:28:39.680Z,17.47
2022-12-09T00:31:08.643Z,17.00
2022-12-09T00:33:37.221Z,17.13
2022-12-09T00:36:06.777Z,18.23
2022-12-09T00:38:36.299Z,18.03
2022-12-09T00:41:04.586Z,17.60
2022-12-09T00:43:33.055Z,17.70
2022-12-09T00:46:01.499Z,17.53
2022-12-09T00:48:29.923Z,16.57
2022-12-09T00:50:58.291Z,17.07
2022-12-09T00:53:27.877Z,17.40
2022-12-09T00:55:57.353Z,17.57
2022-12-09T00:58:25.829Z,18.10
2022-12-09T01:00:54.408Z,18.37
2022-12-09T01:03:22.985Z,17.77
2022-12-09T01:05:51.630Z,17.90
2022-12-09T01:08:20.413Z,19.80
2022-12-09T01:10:49.094Z,18.40
2022-12-09T01:13:18.564Z,18.87
2022-12-09T01:15:46.855Z,19.87
2022-12-09T01:18:15.074Z,18.33
2022-12-09T01:20:43.283Z,19.83
2022-12-09T01:23:11.642Z,20.63
2022-12-09T01:25:39.993Z,19.57
2022-12-09T01:28:07.888Z,21.23
2022-12-09T01:30:37.190Z,18.80
2022-12-09T01:33:06.925Z,20.30
2022-12-09T01:35:34.993Z,19.77
2022-12-09T01:38:03.101Z,18.97
2022-12-09T01:40:32.031Z,19.97
2022-12-09T01:43:00.223Z,21.07
2022-12-09T01:45:45.782Z,20.07
2022-12-09T01:48:15.304Z,19.63
2022-12-09T01:50:48.082Z,19.30
2022-12-09T01:53:18.158Z,20.40
2022-12-09T01:55:47.538Z,18.97
2022-12-09T01:58:17.846Z,19.67
2022-12-09T02:00:48.123Z,18.30
2022-12-09T02:03:16.880Z,19.83
2022-12-09T02:05:45.482Z,19.77
2022-12-09T02:08:16.256Z,18.60
2022-12-09T02:10:53.490Z,20.97
2022-12-09T02:13:28.894Z,21.73
2022-12-09T02:16:00.409Z,20.40
2022-12-09T02:18:37.488Z,20.53
2022-12-09T02:21:11.274Z,21.27
2022-12-09T02:23:42.481Z,21.80
2022-12-09T02:26:19.594Z,21.03
2022-12-09T02:29:05.730Z,21.73
2022-12-09T02:32:10.406Z,23.13
2022-12-09T02:34:45.467Z,20.20
2022-12-09T02:37:20.795Z,19.97
2022-12-09T02:39:55.790Z,22.77
2022-12-09T02:42:31.259Z,22.77
2022-12-09T02:45:04.449Z,22.07
2022-12-09T02:47:35.809Z,21.80
2022-12-09T02:50:09.347Z,22.57
2022-12-09T02:52:39.789Z,21.57
2022-12-09T02:55:10.782Z,22.87
2022-12-09T02:57:41.841Z,22.27
2022-12-09T03:00:15.587Z,24.60
2022-12-09T03:02:46.717Z,25.07
2022-12-09T03:05:23.892Z,22.03
2022-12-09T03:08:00.563Z,23.90
2022-12-09T03:10:32.313Z,23.10
2022-12-09T03:13:05.880Z,23.30
2022-12-09T03:15:37.198Z,23.23
2022-12-09T03:18:10.830Z,24.37
2022-12-09T03:20:42.442Z,27.00
2022-12-09T03:23:13.829Z,27.87
2022-12-09T03:25:45.630Z,24.17
2022-12-09T03:28:18.336Z,22.73
2022-12-09T03:30:47.600Z,24.37
2022-12-09T03:33:18.833Z,25.67
2022-12-09T03:35:51.381Z,26.13
2022-12-09T03:38:21.909Z,26.77
2022-12-09T03:40:53.937Z,25.13
2022-12-09T03:43:28.264Z,26.30
2022-12-09T03:45:58.303Z,26.03
2022-12-09T03:48:26.726Z,26.73
2022-12-09T03:51:01.087Z,24.87
2022-12-09T03:53:34.888Z,24.53
2022-12-09T03:56:09.013Z,26.10
2022-12-09T03:58:39.287Z,26.60
2022-12-09T04:01:08.004Z,25.50
2022-12-09T04:03:36.423Z,26.67
2022-12-09T04:06:06.367Z,26.00
2022-12-09T04:08:34.592Z,24.40
2022-12-09T04:11:02.911Z,27.13
2022-12-09T04:13:31.235Z,25.93
2022-12-09T04:15:59.348Z,27.27
2022-12-09T04:18:28.053Z,26.87
2022-12-09T04:20:56.395Z,27.50
2022-12-09T04:23:25.729Z,26.90
2022-12-09T04:25:53.682Z,27.57
2022-12-09T04:28:21.659Z,30.73
2022-12-09T04:30:49.806Z,27.13
2022-12-09T04:33:18.053Z,29.67
2022-12-09T04:35:46.224Z,27.53
2022-12-09T04:38:14.197Z,28.13
2022-12-09T04:40:43.505Z,27.10
2022-12-09T04:43:11.429Z,29.23
2022-12-09T04:45:39.289Z,28.33
2022-12-09T04:48:07.720Z,29.03
2022-12-09T04:50:35.835Z,30.00
2022-12-09T04:53:03.908Z,30.93
2022-12-09T04:55:31.790Z,29.47
2022-12-09T04:58:02.326Z,31.37
2022-12-09T05:00:30.269Z,31.27
2022-12-09T05:02:58.932Z,31.70
2022-12-09T05:05:27.105Z,28.00
2022-12-09T05:07:55.225Z,28.87
2022-12-09T05:10:23.787Z,35.07
2022-12-09T05:12:52.346Z,33.37
2022-12-09T05:15:21.815Z,30.17
2022-12-09T05:17:49.892Z,30.17
2022-12-09T05:20:18.273Z,29.47
2022-12-09T05:22:46.292Z,30.20
2022-12-09T05:25:14.462Z,29.70
2022-12-09T05:27:42.860Z,29.27
2022-12-09T05:30:11.914Z,28.67
2022-12-09T05:32:42.031Z,28.57
2022-12-09T05:35:10.467Z,28.73
2022-12-09T05:37:38.502Z,31.60
2022-12-09T05:40:08.221Z,30.60
2022-12-09T05:42:41.313Z,29.70
2022-12-09T05:45:11.036Z,29.70
2022-12-09T05:47:39.517Z,29.50
2022-12-09T05:50:10.654Z,28.33
2022-12-09T05:52:39.736Z,30.13
2022-12-09T05:55:10.265Z,28.03
2022-12-09T05:57:38.694Z,30.73
2022-12-09T06:00:09.283Z,29.47
2022-12-09T06:02:40.819Z,28.33
2022-12-09T06:05:11.294Z,30.57
2022-12-09T06:07:39.581Z,28.70
2022-12-09T06:10:09.180Z,32.60
2022-12-09T06:12:37.892Z,30.83
2022-12-09T06:15:09.800Z,28.70
2022-12-09T06:17:38.812Z,31.00
2022-12-09T06:20:08.455Z,30.17
2022-12-09T06:22:38.060Z,30.07
2022-12-09T06:25:06.811Z,28.07
2022-12-09T06:27:34.990Z,30.60
2022-12-09T06:30:04.039Z,28.77
2022-12-09T06:32:32.380Z,33.33
2022-12-09T06:35:00.514Z,31.23
2022-12-09T06:37:28.644Z,29.07
2022-12-09T06:39:58.223Z,30.93
2022-12-09T06:42:26.465Z,29.83
2022-12-09T06:44:54.577Z,34.33
2022-12-09T06:47:22.855Z,34.07
2022-12-09T06:49:50.948Z,33.40
2022-12-09T06:52:19.080Z,31.63
2022-12-09T06:54:47.433Z,33.67
2022-12-09T06:57:17.180Z,30.97
2022-12-09T06:59:45.247Z,29.77
2022-12-09T07:02:14.256Z,31.13
2022-12-09T07:04:42.670Z,30.00
2022-12-09T07:07:12.205Z,28.40
2022-12-09T07:09:40.552Z,31.97
2022-12-09T07:12:09.247Z,31.27
2022-12-09T07:14:38.747Z,31.97
2022-12-09T07:17:07.047Z,32.83
2022-12-09T07:19:35.420Z,29.70
2022-12-09T07:22:03.698Z,33.00
2022-12-09T07:24:31.625Z,32.03
2022-12-09T07:27:06.178Z,32.20
2022-12-09T07:29:38.954Z,30.30
2022-12-09T07:32:09.249Z,30.83
2022-12-09T07:34:37.481Z,29.43
2022-12-09T07:37:06.513Z,31.90
2022-12-09T07:39:34.803Z,28.37
2022-12-09T07:42:03.066Z,29.13
2022-12-09T07:44:32.408Z,31.70
2022-12-09T07:47:02.076Z,31.10
2022-12-09T07:49:30.786Z,29.10
2022-12-09T07:51:58.810Z,31.03
2022-12-09T07:54:27.101Z,30.67
2022-12-09T07:56:55.326Z,30.97
2022-12-09T07:59:23.587Z,30.97
2022-12-09T08:01:51.618Z,31.43
2022-12-09T08:04:21.028Z,28.97
2022-12-09T08:06:49.363Z,30.73
2022-12-09T08:09:17.647Z,33.77
2022-12-09T08:11:46.217Z,33.20
2022-12-09T08:14:14.469Z,32.07
2022-12-09T08:16:43.880Z,32.60
2022-12-09T08:19:13.306Z,31.73
2022-12-09T08:21:43.353Z,34.17
2022-12-09T08:24:13.232Z,31.30
2022-12-09T08:26:42.368Z,34.67
2022-12-09T08:29:12.060Z,30.60
2022-12-09T08:31:42.816Z,30.90
2022-12-09T08:34:12.129Z,32.67
2022-12-09T08:36:42.468Z,32.93
2022-12-09T08:39:13.154Z,32.37
2022-12-09T08:41:41.838Z,31.83
2022-12-09T08:44:12.179Z,30.20
2022-12-09T08:46:42.124Z,32.47
2022-12-09T08:49:11.830Z,30.33
2022-12-09T08:51:40.470Z,31.93
2022-12-09T08:54:09.919Z,32.97
2022-12-09T08:56:38.132Z,31.33
2022-12-09T08:59:06.823Z,30.60
2022-12-09T09:01:35.560Z,29.90
2022-12-09T09:04:06.466Z,29.13
2022-12-09T09:06:35.167Z,30.70
2022-12-09T09:09:04.030Z,30.30
2022-12-09T09:11:34.294Z,30.90
2022-12-09T09:14:04.953Z,30.37
2022-12-09T09:16:33.143Z,28.33
2022-12-09T09:19:03.571Z,29.13
2022-12-09T09:21:31.918Z,30.33
2022-12-09T09:24:00.911Z,29.37
2022-12-09T09:26:29.610Z,29.97
2022-12-09T09:28:59.291Z,28.97
2022-12-09T09:31:27.548Z,29.57
2022-12-09T09:33:55.958Z,30.80
2022-12-09T09:36:25.792Z,29.80
2022-12-09T09:38:56.111Z,27.43
2022-12-09T09:41:34.766Z,25.40
2022-12-09T09:44:04.729Z,23.83
2022-12-09T09:46:38.886Z,25.50
2022-12-09T09:49:10.788Z,26.37
2022-12-09T09:51:40.760Z,26.90
2022-12-09T09:54:12.522Z,21.20
2022-12-09T09:56:45.917Z,23.23
2022-12-09T09:59:26.357Z,23.33
2022-12-09T10:02:02.564Z,21.97
2022-12-09T10:04:43.408Z,23.37
2022-12-09T10:07:24.235Z,22.43
2022-12-09T10:10:03.355Z,21.73
2022-12-09T10:12:39.725Z,20.00
2022-12-09T10:15:14.269Z,21.20
2022-12-09T10:17:50.131Z,19.23
2022-12-09T10:20:21.177Z,17.70
2022-12-09T10:22:53.227Z,18.80
2022-12-09T10:25:24.850Z,19.87
2022-12-09T10:27:58.211Z,20.53
2022-12-09T10:30:34.205Z,18.83
2022-12-09T10:33:05.639Z,18.43
2022-12-09T10:35:34.712Z,19.23
2022-12-09T10:38:09.125Z,18.70
2022-12-09T10:40:44.577Z,19.33
2022-12-09T10:43:35.285Z,19.37
2022-12-09T10:46:17.770Z,19.73
2022-12-09T10:48:54.054Z,19.00
2022-12-09T10:51:25.939Z,17.80
2022-12-09T10:53:56.865Z,17.87
2022-12-09T10:56:28.312Z,17.97
2022-12-09T10:59:11.578Z,17.70
2022-12-09T11:01:56.574Z,17.07
2022-12-09T11:04:28.274Z,16.43
2022-12-09T11:07:00.931Z,17.00
2022-12-09T11:09:32.152Z,19.03
2022-12-09T11:12:01.991Z,17.40
2022-12-09T11:14:35.843Z,16.03
2022-12-09T11:17:17.048Z,17.13
2022-12-09T11:19:48.959Z,16.67
2022-12-09T11:22:39.399Z,16.00
2022-12-09T11:25:23.910Z,16.97
2022-12-09T11:27:55.532Z,15.93
2022-12-09T11:30:26.464Z,16.67
2022-12-09T11:33:08.833Z,16.57
2022-12-09T11:35:53.974Z,16.50
2022-12-09T11:38:41.152Z,16.13
2022-12-09T11:41:40.350Z,15.10
2022-12-09T11:44:26.571Z,13.67
2022-12-09T11:47:01.133Z,15.90
2022-12-09T11:49:32.829Z,18.93
2022-12-09T11:52:05.078Z,17.93
2022-12-09T11:54:41.331Z,18.83
2022-12-09T11:57:22.010Z,19.20
2022-12-09T11:59:54.805Z,17.77
2022-12-09T12:02:31.240Z,18.03
2022-12-09T12:05:07.871Z,18.90
2022-12-09T12:07:42.567Z,17.90
2022-12-09T12:10:20.639Z,18.07
2022-12-09T12:12:57.098Z,18.47
2022-12-09T12:15:33.107Z,18.50
2022-12-09T12:18:04.342Z,17.97
2022-12-09T12:20:50.212Z,17.63
2022-12-09T12:23:45.412Z,17.60
2022-12-09T12:26:18.348Z,15.93
2022-12-09T12:29:11.092Z,17.57
2022-12-09T12:31:54.561Z,18.17
2022-12-09T12:34:30.994Z,18.03
2022-12-09T12:37:21.072Z,17.17
2022-12-09T12:39:57.394Z,16.83
2022-12-09T12:42:40.208Z,16.70
2022-12-09T12:45:34.693Z,17.33
2022-12-09T12:48:07.018Z,16.80
2022-12-09T12:50:50.239Z,17.83
2022-12-09T12:53:32.812Z,17.17
2022-12-09T12:56:05.807Z,16.20
2022-12-09T12:58:43.027Z,17.03
2022-12-09T13:01:16.987Z,16.87
2022-12-09T13:03:54.237Z,18.10
2022-12-09T13:06:29.885Z,17.50
2022-12-09T13:09:04.278Z,17.40
2022-12-09T13:11:39.639Z,18.47
2022-12-09T13:14:13.317Z,16.73
2022-12-09T13:16:43.782Z,16.20
2022-12-09T13:19:16.917Z,17.60
2022-12-09T13:21:46.445Z,17.33
2022-12-09T13:24:26.935Z,17.70
2022-12-09T13:27:01.734Z,17.70
2022-12-09T13:29:38.437Z,18.27
2022-12-09T13:32:21.056Z,18.00
2022-12-09T13:34:54.344Z,16.93
2022-12-09T13:37:55.870Z,17.93
2022-12-09T13:40:31.877Z,16.77
2022-12-09T13:43:19.200Z,17.60
2022-12-09T13:45:57.151Z,17.77
2022-12-09T13:48:52.731Z,16.07
2022-12-09T13:51:21.759Z,15.90
2022-12-09T13:54:00.827Z,16.93
2022-12-09T13:56:32.912Z,16.27
2022-12-09T13:59:37.939Z,15.30
2022-12-09T14:02:16.291Z,15.67
2022-12-09T14:04:48.941Z,15.80
2022-12-09T14:07:26.871Z,17.50
2022-12-09T14:09:56.896Z,16.23
2022-12-09T14:13:04.668Z,17.30
2022-12-09T14:15:38.586Z,17.50
2022-12-09T14:18:28.530Z,17.23
2022-12-09T14:21:25.077Z,18.13
2022-12-09T14:24:29.916Z,15.87
2022-12-09T14:27:21.705Z,16.57
2022-12-09T14:30:01.728Z,19.30
2022-12-09T14:32:32.110Z,18.30
2022-12-09T14:35:03.330Z,18.53
2022-12-09T14:37:46.647Z,18.47
2022-12-09T14:40:27.286Z,17.40
2022-12-09T14:43:03.480Z,17.00
2022-12-09T14:45:43.588Z,16.33
2022-12-09T14:48:13.972Z,16.50
2022-12-09T14:50:42.286Z,15.50
2022-12-09T14:53:22.062Z,16.83
2022-12-09T14:55:50.681Z,16.40
2022-12-09T14:58:21.529Z,16.20
2022-12-09T15:01:00.126Z,16.53
2022-12-09T15:03:34.164Z,16.20
2022-12-09T15:06:06.893Z,16.60
2022-12-09T15:08:36.401Z,15.27
2022-12-09T15:11:09.833Z,16.20
2022-12-09T15:13:39.129Z,15.23
2022-12-09T15:16:11.262Z,15.77
2022-12-09T15:18:41.444Z,15.57
2022-12-09T15:21:10.336Z,15.13
2022-12-09T15:23:40.913Z,16.20
2022-12-09T15:26:19.259Z,16.10
2022-12-09T15:28:49.106Z,16.10
2022-12-09T15:31:20.620Z,16.20
2022-12-09T15:33:51.174Z,15.83
2022-12-09T15:36:23.401Z,16.90
2022-12-09T15:38:55.278Z,16.33
2022-12-09T15:41:42.121Z,16.37
2022-12-09T15:44:14.529Z,15.87
2022-12-09T15:46:46.916Z,17.87
2022-12-09T15:49:18.704Z,16.47
2022-12-09T15:51:49.737Z,16.07
2022-12-09T15:54:21.466Z,16.00
2022-12-09T15:56:54.607Z,16.20
2022-12-09T15:59:26.749Z,16.90
2022-12-09T16:01:58.494Z,17.47
2022-12-09T16:04:30.054Z,17.00
2022-12-09T16:07:04.970Z,16.70
2022-12-09T16:09:32.939Z,16.77
2022-12-09T16:12:01.096Z,16.20
2022-12-09T16:14:43.058Z,15.50
2022-12-09T16:17:21.687Z,16.00
2022-12-09T16:19:49.713Z,15.60
2022-12-09T16:22:22.495Z,15.07
2022-12-09T16:27:46.175Z,15.30
2022-12-09T16:30:21.800Z,16.17
2022-12-09T16:32:52.789Z,15.47
2022-12-09T16:35:24.520Z,16.73
2022-12-09T16:38:17.827Z,17.13
2022-12-09T16:41:09.690Z,18.27
2022-12-09T16:43:53.120Z,19.03
2022-12-09T16:46:39.485Z,17.23
2022-12-09T16:49:08.878Z,17.50
2022-12-09T16:51:38.729Z,16.13
2022-12-09T16:54:20.283Z,17.20
2022-12-09T16:56:49.378Z,17.80
2022-12-09T16:59:17.361Z,17.70
2022-12-09T17:01:45.582Z,18.03
2022-12-09T17:04:18.518Z,18.20
2022-12-09T17:06:46.717Z,17.77
2022-12-09T17:09:14.653Z,18.47
2022-12-09T17:11:48.546Z,17.97
2022-12-09T17:14:17.401Z,19.43
2022-12-09T17:16:45.726Z,19.13
2022-12-09T17:19:15.658Z,18.23
2022-12-09T17:21:43.569Z,18.20
2022-12-09T17:24:12.528Z,18.33
2022-12-09T17:26:40.530Z,18.73
2022-12-09T17:29:08.433Z,18.70
2022-12-09T17:31:36.357Z,19.10
2022-12-09T17:34:04.532Z,18.67
2022-12-09T17:36:33.777Z,18.07
2022-12-09T17:39:02.369Z,19.10
2022-12-09T17:41:30.848Z,18.70
2022-12-09T17:44:00.610Z,18.87
2022-12-09T17:46:28.680Z,20.93
2022-12-09T17:48:56.664Z,20.20
2022-12-09T17:51:24.567Z,20.20
2022-12-09T17:53:55.421Z,20.33
2022-12-09T17:56:24.478Z,20.10
2022-12-09T17:58:57.955Z,19.40
2022-12-09T18:01:26.354Z,19.60
2022-12-09T18:04:02.574Z,19.83
2022-12-09T18:06:34.220Z,20.50
2022-12-09T18:09:05.264Z,20.03
2022-12-09T18:11:33.605Z,18.77
2022-12-09T18:14:01.850Z,20.60
2022-12-09T18:16:30.098Z,19.57
2022-12-09T18:19:02.345Z,20.00
2022-12-09T18:21:30.248Z,20.20
2022-12-09T18:23:58.166Z,20.37
2022-12-09T18:26:31.987Z,19.67
2022-12-09T18:29:02.035Z,20.37
2022-12-09T18:31:30.257Z,20.90
2022-12-09T18:33:58.231Z,20.27
2022-12-09T18:36:28.391Z,20.10
2022-12-09T18:38:57.860Z,21.13
2022-12-09T18:41:29.551Z,21.43
2022-12-09T18:43:59.139Z,20.17
2022-12-09T18:46:29.354Z,20.47
2022-12-09T18:48:58.411Z,19.77
2022-12-09T18:51:27.193Z,19.87
2022-12-09T18:53:55.273Z,19.33
2022-12-09T18:56:23.346Z,19.87
2022-12-09T18:59:09.326Z,20.37
2022-12-09T19:01:40.591Z,21.40
2022-12-09T19:04:12.760Z,28.70
2022-12-09T19:06:42.614Z,21.00
2022-12-09T19:09:12.319Z,21.80
2022-12-09T19:11:41.929Z,19.33
2022-12-09T19:14:11.327Z,20.37
2022-12-09T19:16:39.608Z,22.90
2022-12-09T19:19:10.349Z,20.67
2022-12-09T19:21:39.890Z,18.77
2022-12-09T19:24:09.147Z,20.43
2022-12-09T19:26:37.861Z,19.17
2022-12-09T19:29:08.783Z,19.50
2022-12-09T19:31:39.756Z,20.57
2022-12-09T19:34:09.529Z,20.77
2022-12-09T19:36:37.564Z,20.97
2022-12-09T19:39:08.051Z,20.13
2022-12-09T19:41:36.896Z,20.20
2022-12-09T19:44:06.254Z,19.83
2022-12-09T19:46:34.997Z,20.33
2022-12-09T19:49:04.334Z,20.47
2022-12-09T19:51:32.507Z,20.70
2022-12-09T19:54:02.549Z,21.90
2022-12-09T19:56:31.022Z,20.10
2022-12-09T19:58:59.715Z,20.87
2022-12-09T20:01:29.294Z,21.40
2022-12-09T20:04:08.578Z,19.93
2022-12-09T20:06:43.805Z,21.53
2022-12-09T20:09:14.006Z,21.70
2022-12-09T20:11:43.023Z,19.67
2022-12-09T20:14:14.245Z,22.90
2022-12-09T20:16:42.441Z,20.50
2022-12-09T20:19:11.625Z,20.70
2022-12-09T20:21:40.469Z,20.93
2022-12-09T20:24:10.477Z,21.47
2022-12-09T20:26:38.990Z,22.83
2022-12-09T20:29:08.941Z,21.40
2022-12-09T20:31:38.822Z,20.70
2022-12-09T20:34:09.378Z,20.90
2022-12-09T20:36:38.515Z,21.87
2022-12-09T20:39:12.409Z,21.47
2022-12-09T20:41:41.679Z,21.63
2022-12-09T20:44:10.786Z,20.10
2022-12-09T20:46:40.727Z,21.13
2022-12-09T20:49:08.661Z,19.73
2022-12-09T20:51:38.105Z,20.20
2022-12-09T20:54:07.273Z,21.10
2022-12-09T20:56:36.775Z,20.20
2022-12-09T20:59:06.661Z,20.43
2022-12-09T21:01:35.937Z,20.40
2022-12-09T21:04:06.358Z,20.70
2022-12-09T21:06:36.913Z,20.67
2022-12-09T21:09:07.089Z,19.40
2022-12-09T21:11:36.489Z,19.67
2022-12-09T21:14:06.703Z,19.97
2022-12-09T21:16:36.862Z,20.20
2022-12-09T21:19:07.228Z,19.20
2022-12-09T21:21:37.924Z,18.97
2022-12-09T21:24:06.599Z,19.23
2022-12-09T21:26:35.844Z,20.17
2022-12-09T21:29:04.020Z,19.23
2022-12-09T21:31:33.766Z,20.13
2022-12-09T21:34:04.205Z,21.07
2022-12-09T21:36:33.879Z,18.77
2022-12-09T21:39:02.369Z,20.40
2022-12-09T21:41:32.479Z,20.43
2022-12-09T21:44:02.303Z,18.83
2022-12-09T21:46:31.961Z,19.43
2022-12-09T21:49:03.940Z,19.33
2022-12-09T21:51:32.602Z,18.57
2022-12-09T21:54:00.863Z,18.90
2022-12-09T21:56:32.701Z,19.37
2022-12-09T21:59:02.583Z,18.50
2022-12-09T22:01:32.277Z,17.67
2022-12-09T22:04:01.653Z,18.87
2022-12-09T22:06:30.075Z,18.17
2022-12-09T22:08:59.706Z,18.37
2022-12-09T22:11:30.562Z,19.40
2022-12-09T22:14:00.446Z,17.83
2022-12-09T22:16:32.139Z,18.87
2022-12-09T22:19:02.349Z,18.23
2022-12-09T22:21:33.271Z,19.97
2022-12-09T22:24:04.498Z,20.07
2022-12-09T22:26:33.319Z,19.13
2022-12-09T22:29:02.583Z,19.63
2022-12-09T22:31:33.383Z,21.73
2022-12-09T22:34:03.566Z,20.87
2022-12-09T22:36:31.660Z,20.73
2022-12-09T22:38:59.763Z,21.67
2022-12-09T22:41:30.410Z,21.77
2022-12-09T22:43:58.957Z,21.67
2022-12-09T22:46:29.470Z,21.73
2022-12-09T22:49:02.126Z,22.93
2022-12-09T22:51:32.189Z,24.40
2022-12-09T22:54:01.631Z,23.17
2022-12-09T22:56:29.695Z,24.03
2022-12-09T22:58:57.781Z,24.13
2022-12-09T23:01:27.610Z,23.30
2022-12-09T23:03:56.808Z,23.03
2022-12-09T23:06:27.623Z,23.23
2022-12-09T23:08:55.955Z,25.17
2022-12-09T23:11:25.534Z,24.97
2022-12-09T23:13:54.157Z,24.70
2022-12-09T23:16:24.165Z,25.50
2022-12-09T23:18:53.122Z,25.10
2022-12-09T23:21:22.922Z,27.10
2022-12-09T23:23:54.866Z,25.43
2022-12-09T23:26:25.582Z,26.30
2022-12-09T23:28:56.753Z,24.43
2022-12-09T23:31:26.949Z,24.87
2022-12-09T23:33:55.816Z,25.67
2022-12-09T23:36:26.598Z,23.53
2022-12-09T23:38:55.996Z,27.20
2022-12-09T23:41:25.243Z,25.63
2022-12-09T23:43:54.092Z,25.47
2022-12-09T23:46:24.284Z,24.90
2022-12-09T23:48:53.607Z,25.20
2022-12-09T23:51:23.957Z,25.80
2022-12-09T23:53:54.816Z,25.03
2022-12-09T23:56:26.623Z,25.87
2022-12-09T23:58:56.273Z,24.97
